createdAt,value
2019-05-18T00:01:54.979Z,8.30
2019-05-18T00:04:25.360Z,8.13
2019-05-18T00:06:56.763Z,7.63
2019-05-18T00:09:27.179Z,7.93
2019-05-18T00:11:57.603Z,7.20
2019-05-18T00:14:29.622Z,6.93
2019-05-18T00:17:01.018Z,8.07
2019-05-18T00:19:31.378Z,7.57
2019-05-18T00:22:02.708Z,8.70
2019-05-18T00:24:33.063Z,6.17
2019-05-18T00:27:03.477Z,6.30
2019-05-18T00:29:35.534Z,6.17
2019-05-18T00:32:05.941Z,9.37
2019-05-18T00:34:36.375Z,6.60
2019-05-18T00:37:06.721Z,6.43
2019-05-18T00:39:37.099Z,7.43
2019-05-18T00:42:07.407Z,7.40
2019-05-18T00:44:37.806Z,8.87
2019-05-18T00:47:08.166Z,9.10
2019-05-18T00:49:38.528Z,9.60
2019-05-18T00:52:08.887Z,10.07
2019-05-18T00:54:39.331Z,10.00
2019-05-18T00:57:09.712Z,11.53
2019-05-18T00:59:40.032Z,10.53
2019-05-18T01:02:10.416Z,10.73
2019-05-18T01:04:40.786Z,10.57
2019-05-18T01:07:11.157Z,9.60
2019-05-18T01:09:41.468Z,8.13
2019-05-18T01:12:11.839Z,8.77
2019-05-18T01:14:42.161Z,8.73
2019-05-18T01:17:14.628Z,9.13
2019-05-18T01:19:45.003Z,8.97
2019-05-18T01:22:15.403Z,8.50
2019-05-18T01:24:45.775Z,8.57
2019-05-18T01:27:17.637Z,8.57
2019-05-18T01:29:47.979Z,8.80
2019-05-18T01:32:19.108Z,7.63
2019-05-18T01:34:54.153Z,8.10
2019-05-18T01:37:24.465Z,7.60
2019-05-18T01:39:54.974Z,9.10
2019-05-18T01:42:25.295Z,9.20
2019-05-18T01:45:15.398Z,8.47
2019-05-18T01:47:34.104Z,8.87
2019-05-18T01:50:13.088Z,8.63
2019-05-18T01:52:43.402Z,9.57
2019-05-18T01:55:14.325Z,9.60
2019-05-18T01:57:44.693Z,10.03
2019-05-18T02:00:16.221Z,10.77
2019-05-18T02:02:46.589Z,9.87
2019-05-18T02:05:16.916Z,10.20
2019-05-18T02:07:47.298Z,10.60
2019-05-18T02:10:18.218Z,11.30
2019-05-18T02:12:48.598Z,10.83
2019-05-18T02:15:19.126Z,11.03
2019-05-18T02:17:49.521Z,10.73
2019-05-18T02:20:19.987Z,12.13
2019-05-18T02:22:50.256Z,11.13
2019-05-18T02:25:20.710Z,11.77
2019-05-18T02:27:51.075Z,11.87
2019-05-18T02:30:21.559Z,11.47
2019-05-18T02:32:51.888Z,12.03
2019-05-18T02:35:22.252Z,11.27
2019-05-18T02:37:55.995Z,12.17
2019-05-18T02:40:26.367Z,11.20
2019-05-18T02:42:56.690Z,11.50
2019-05-18T02:45:27.056Z,11.83
2019-05-18T02:47:57.467Z,11.97
2019-05-18T02:50:30.437Z,11.37
2019-05-18T02:53:00.760Z,12.23
2019-05-18T02:55:31.186Z,12.40
2019-05-18T02:58:01.650Z,12.37
2019-05-18T03:00:32.042Z,12.13
2019-05-18T03:03:02.543Z,12.10
2019-05-18T03:05:33.157Z,11.53
2019-05-18T03:08:03.585Z,11.63
2019-05-18T03:10:34.139Z,11.87
2019-05-18T03:13:05.706Z,12.40
2019-05-18T03:15:36.182Z,11.67
2019-05-18T03:18:06.793Z,12.10
2019-05-18T03:20:37.203Z,12.57
2019-05-18T03:23:08.711Z,12.07
2019-05-18T03:25:39.031Z,12.30
2019-05-18T03:28:09.427Z,12.77
2019-05-18T03:30:39.772Z,12.90
2019-05-18T03:33:10.220Z,12.30
2019-05-18T03:35:40.537Z,12.93
2019-05-18T03:38:10.933Z,11.80
2019-05-18T03:40:41.290Z,12.60
2019-05-18T03:43:11.689Z,11.90
2019-05-18T03:45:42.078Z,12.47
2019-05-18T03:48:12.431Z,12.27
2019-05-18T03:50:44.107Z,11.43
2019-05-18T03:53:18.028Z,11.20
2019-05-18T03:55:46.401Z,10.70
2019-05-18T03:58:16.852Z,11.43
2019-05-18T04:00:47.339Z,11.30
2019-05-18T04:03:17.676Z,11.30
2019-05-18T04:05:48.115Z,10.63
2019-05-18T04:08:18.419Z,10.30
2019-05-18T04:10:48.793Z,11.27
2019-05-18T04:13:19.131Z,11.07
2019-05-18T04:15:49.506Z,11.07
2019-05-18T04:18:19.904Z,10.30
2019-05-18T04:20:50.266Z,11.50
2019-05-18T04:23:20.696Z,10.80
2019-05-18T04:25:51.131Z,10.63
2019-05-18T04:28:21.456Z,10.80
2019-05-18T04:30:51.822Z,10.93
2019-05-18T04:33:22.227Z,11.90
2019-05-18T04:35:52.596Z,12.20
2019-05-18T04:38:22.989Z,12.00
2019-05-18T04:40:53.364Z,11.03
2019-05-18T04:43:23.706Z,12.30
2019-05-18T04:45:54.075Z,11.30
2019-05-18T04:48:24.396Z,12.03
2019-05-18T04:50:54.756Z,12.07
2019-05-18T04:53:25.080Z,12.00
2019-05-18T04:55:55.458Z,11.73
2019-05-18T04:58:25.884Z,12.00
2019-05-18T05:00:56.261Z,12.83
2019-05-18T05:03:27.669Z,12.47
2019-05-18T05:05:58.031Z,12.33
2019-05-18T05:08:28.355Z,12.43
2019-05-18T05:10:58.743Z,12.87
2019-05-18T05:13:29.067Z,12.03
2019-05-18T05:15:59.499Z,11.33
2019-05-18T05:18:29.836Z,11.60
2019-05-18T05:21:00.251Z,12.00
2019-05-18T05:23:30.671Z,11.43
2019-05-18T05:26:01.027Z,12.10
2019-05-18T05:28:32.358Z,11.83
2019-05-18T05:31:02.825Z,12.80
2019-05-18T05:33:33.202Z,12.63
2019-05-18T05:36:04.527Z,11.17
2019-05-18T05:38:34.914Z,11.37
2019-05-18T05:41:05.280Z,12.80
2019-05-18T05:43:35.664Z,13.63
2019-05-18T05:46:06.071Z,13.57
2019-05-18T05:48:36.459Z,13.27
2019-05-18T05:51:06.805Z,12.60
2019-05-18T05:53:37.214Z,11.40
2019-05-18T05:56:07.591Z,10.90
2019-05-18T05:58:38.068Z,8.83
2019-05-18T06:01:08.491Z,10.60
2019-05-18T06:03:38.918Z,10.63
2019-05-18T06:06:09.427Z,11.00
2019-05-18T06:08:39.808Z,9.50
2019-05-18T06:11:10.162Z,9.70
2019-05-18T06:13:42.273Z,9.87
2019-05-18T06:16:12.555Z,10.17
2019-05-18T06:18:42.922Z,9.23
2019-05-18T06:21:13.301Z,9.03
2019-05-18T06:23:43.655Z,8.57
2019-05-18T06:26:13.985Z,8.20
2019-05-18T06:28:44.335Z,8.93
2019-05-18T06:31:14.688Z,8.70
2019-05-18T06:33:45.018Z,10.17
2019-05-18T06:36:15.475Z,9.77
2019-05-18T06:38:45.898Z,9.00
2019-05-18T06:41:16.279Z,9.23
2019-05-18T06:43:46.656Z,8.73
2019-05-18T06:46:17.027Z,9.37
2019-05-18T06:48:47.419Z,8.70
2019-05-18T06:51:17.743Z,8.77
2019-05-18T06:53:48.163Z,9.97
2019-05-18T06:56:19.667Z,8.30
2019-05-18T06:58:51.571Z,8.67
2019-05-18T07:01:22.004Z,8.03
2019-05-18T07:03:52.639Z,6.40
2019-05-18T07:06:23.046Z,6.30
2019-05-18T07:08:53.602Z,8.40
2019-05-18T07:11:24.082Z,7.93
2019-05-18T07:13:54.468Z,8.10
2019-05-18T07:16:24.894Z,9.10
2019-05-18T07:18:55.376Z,8.13
2019-05-18T07:21:27.595Z,9.70
2019-05-18T07:23:58.035Z,8.83
2019-05-18T07:26:28.368Z,9.17
2019-05-18T07:28:58.751Z,8.17
2019-05-18T07:31:29.251Z,6.90
2019-05-18T07:33:59.578Z,8.23
2019-05-18T07:36:30.003Z,8.87
2019-05-18T07:39:00.483Z,6.90
2019-05-18T07:41:45.562Z,6.07
2019-05-18T07:44:03.471Z,5.20
2019-05-18T07:46:33.842Z,6.80
2019-05-18T07:49:04.179Z,5.70
2019-05-18T07:51:37.221Z,6.33
2019-05-18T07:54:06.524Z,6.70
2019-05-18T07:56:36.887Z,7.50
2019-05-18T07:59:07.280Z,8.03
2019-05-18T08:01:37.689Z,5.63
2019-05-18T08:04:08.003Z,5.90
2019-05-18T08:06:38.386Z,7.57
2019-05-18T08:09:08.880Z,7.47
2019-05-18T08:11:39.278Z,7.17
2019-05-18T08:14:09.599Z,6.50
2019-05-18T08:16:39.957Z,7.00
2019-05-18T08:19:10.405Z,7.03
2019-05-18T08:21:52.911Z,6.07
2019-05-18T08:24:12.749Z,8.80
2019-05-18T08:26:43.552Z,6.67
2019-05-18T08:29:13.942Z,7.67
2019-05-18T08:31:44.298Z,8.10
2019-05-18T08:34:14.624Z,8.10
2019-05-18T08:36:45.008Z,8.17
2019-05-18T08:39:15.349Z,6.90
2019-05-18T08:41:48.601Z,7.37
2019-05-18T08:44:17.688Z,7.50
2019-05-18T08:46:49.158Z,7.33
2019-05-18T08:49:19.491Z,6.90
2019-05-18T08:51:49.950Z,6.67
2019-05-18T08:54:39.429Z,6.80
2019-05-18T08:57:09.820Z,8.03
2019-05-18T08:59:40.170Z,7.53
2019-05-18T09:02:10.583Z,6.00
2019-05-18T09:04:40.899Z,7.10
2019-05-18T09:07:11.266Z,6.17
2019-05-18T09:09:41.635Z,6.57
2019-05-18T09:12:12.103Z,7.43
2019-05-18T09:14:43.437Z,7.43
2019-05-18T09:17:13.818Z,6.23
2019-05-18T09:19:44.178Z,6.63
2019-05-18T09:22:22.854Z,6.87
2019-05-18T09:24:46.502Z,7.77
2019-05-18T09:27:16.865Z,7.20
2019-05-18T09:29:47.295Z,6.60
2019-05-18T09:32:17.670Z,6.67
2019-05-18T09:34:48.039Z,6.57
2019-05-18T09:37:18.400Z,5.57
2019-05-18T09:39:49.002Z,6.23
2019-05-18T09:42:19.374Z,7.40
2019-05-18T09:44:49.707Z,5.50
2019-05-18T09:47:20.103Z,6.13
2019-05-18T09:49:50.492Z,5.73
2019-05-18T09:52:20.836Z,5.40
2019-05-18T09:54:51.233Z,6.53
2019-05-18T09:57:21.679Z,6.00
2019-05-18T09:59:52.067Z,6.50
2019-05-18T10:02:22.426Z,6.20
2019-05-18T10:04:52.819Z,5.23
2019-05-18T10:07:23.243Z,8.87
2019-05-18T10:09:53.548Z,5.70
2019-05-18T10:12:24.816Z,8.70
2019-05-18T10:14:55.274Z,6.17
2019-05-18T10:17:25.666Z,9.17
2019-05-18T10:19:56.224Z,5.57
2019-05-18T10:22:26.610Z,5.20
2019-05-18T10:24:56.935Z,6.13
2019-05-18T10:27:27.308Z,4.97
2019-05-18T10:29:57.630Z,5.67
2019-05-18T10:32:27.992Z,4.57
2019-05-18T10:34:59.338Z,4.93
2019-05-18T10:37:29.711Z,4.53
2019-05-18T10:40:00.162Z,6.53
2019-05-18T10:42:34.214Z,5.30
2019-05-18T10:45:08.305Z,5.37
2019-05-18T10:47:39.943Z,6.03
2019-05-18T10:50:10.464Z,7.47
2019-05-18T10:52:40.851Z,5.30
2019-05-18T10:55:11.562Z,5.57
2019-05-18T10:57:42.415Z,7.17
2019-05-18T11:00:13.581Z,5.85
2019-05-18T11:02:43.982Z,5.13
2019-05-18T11:05:14.568Z,5.33
2019-05-18T11:07:44.937Z,5.40
2019-05-18T11:10:15.484Z,5.40
2019-05-18T11:12:45.939Z,5.67
2019-05-18T11:15:17.925Z,6.67
2019-05-18T11:17:48.256Z,5.57
2019-05-18T11:20:19.429Z,5.00
2019-05-18T11:22:49.801Z,8.57
2019-05-18T11:25:20.220Z,5.77
2019-05-18T11:27:55.247Z,6.67
2019-05-18T11:30:26.913Z,5.97
2019-05-18T11:33:00.772Z,5.30
2019-05-18T11:35:42.853Z,5.50
2019-05-18T11:38:18.480Z,5.53
2019-05-18T11:40:53.297Z,4.97
2019-05-18T11:43:23.742Z,4.70
2019-05-18T11:45:54.050Z,4.23
2019-05-18T11:48:26.273Z,5.37
2019-05-18T11:50:56.678Z,5.63
2019-05-18T11:53:27.107Z,5.53
2019-05-18T11:55:59.235Z,5.12
2019-05-18T11:58:29.670Z,6.92
2019-05-18T12:01:00.024Z,4.28
2019-05-18T12:03:30.465Z,5.17
2019-05-18T12:06:00.804Z,5.37
2019-05-18T12:08:31.172Z,4.87
2019-05-18T12:11:01.483Z,7.85
2019-05-18T12:13:34.088Z,5.58
2019-05-18T12:16:04.474Z,4.80
2019-05-18T12:18:34.840Z,5.83
2019-05-18T12:21:06.314Z,4.83
2019-05-18T12:23:36.683Z,4.20
2019-05-18T12:26:11.022Z,5.53
2019-05-18T12:28:41.449Z,5.00
2019-05-18T12:31:12.126Z,5.33
2019-05-18T12:33:42.499Z,4.15
2019-05-18T12:36:15.455Z,4.00
2019-05-18T12:38:44.886Z,3.72
2019-05-18T12:41:17.151Z,4.65
2019-05-18T12:43:47.592Z,3.95
2019-05-18T12:46:22.183Z,4.20
2019-05-18T12:48:53.002Z,6.25
2019-05-18T12:51:23.359Z,4.00
2019-05-18T12:53:53.716Z,4.67
2019-05-18T12:56:24.052Z,6.30
2019-05-18T12:58:54.428Z,5.30
2019-05-18T13:01:24.749Z,4.70
2019-05-18T13:03:55.118Z,7.40
2019-05-18T13:06:25.565Z,6.17
2019-05-18T13:08:55.936Z,5.47
2019-05-18T13:11:27.947Z,6.85
2019-05-18T13:13:58.310Z,6.35
2019-05-18T13:16:28.623Z,7.55
2019-05-18T13:18:59.030Z,4.00
2019-05-18T13:21:29.489Z,5.08
2019-05-18T13:23:59.971Z,5.00
2019-05-18T13:26:30.295Z,3.55
2019-05-18T13:29:00.637Z,6.08
2019-05-18T13:31:30.977Z,5.53
2019-05-18T13:34:01.344Z,5.33
2019-05-18T13:36:31.669Z,4.12
2019-05-18T13:39:02.049Z,6.83
2019-05-18T13:41:33.595Z,8.85
2019-05-18T13:44:03.947Z,7.15
2019-05-18T13:46:34.296Z,5.53
2019-05-18T13:49:07.180Z,5.53
2019-05-18T13:51:37.738Z,4.62
2019-05-18T13:54:08.171Z,4.70
2019-05-18T13:56:39.962Z,5.30
2019-05-18T13:59:10.457Z,4.47
2019-05-18T14:01:40.839Z,5.08
2019-05-18T14:04:11.251Z,4.97
2019-05-18T14:06:41.596Z,5.03
2019-05-18T14:09:12.285Z,4.80
2019-05-18T14:11:43.570Z,5.90
2019-05-18T14:14:13.935Z,4.62
2019-05-18T14:16:55.774Z,5.87
2019-05-18T14:19:26.188Z,5.78
2019-05-18T14:21:56.572Z,6.03
2019-05-18T14:24:26.951Z,6.08
2019-05-18T14:26:57.309Z,5.90
2019-05-18T14:29:27.771Z,7.00
2019-05-18T14:31:58.094Z,6.83
2019-05-18T14:34:28.476Z,7.47
2019-05-18T14:36:58.796Z,6.30
2019-05-18T14:39:40.270Z,5.90
2019-05-18T14:42:11.666Z,6.47
2019-05-18T14:44:49.912Z,5.97
2019-05-18T14:47:20.383Z,6.03
2019-05-18T14:49:50.826Z,1.80
2019-05-18T14:52:22.215Z,1.97
2019-05-18T14:54:52.582Z,2.20
2019-05-18T14:57:25.664Z,2.40
2019-05-18T14:59:54.905Z,2.47
2019-05-18T15:02:25.333Z,3.37
2019-05-18T15:04:57.017Z,2.93
2019-05-18T15:07:27.541Z,4.40
2019-05-18T15:09:57.930Z,10.00
2019-05-18T15:12:29.263Z,7.27
2019-05-18T15:14:59.616Z,7.10
2019-05-18T15:17:29.965Z,30.10
2019-05-18T15:20:00.344Z,11.83
2019-05-18T15:22:30.754Z,7.17
2019-05-18T15:25:01.193Z,9.10
2019-05-18T15:27:32.698Z,12.90
2019-05-18T15:30:03.185Z,9.97
2019-05-18T15:32:33.563Z,3.20
2019-05-18T15:35:04.143Z,4.40
2019-05-18T15:37:35.434Z,4.37
2019-05-18T15:40:06.540Z,3.90
2019-05-18T15:42:36.866Z,3.00
2019-05-18T15:45:07.366Z,2.90
2019-05-18T15:47:37.663Z,5.47
2019-05-18T15:50:08.595Z,4.00
2019-05-18T15:52:39.111Z,4.10
2019-05-18T15:55:09.889Z,4.27
2019-05-18T15:57:40.239Z,4.50
2019-05-18T16:00:11.305Z,6.67
2019-05-18T16:02:41.823Z,4.60
2019-05-18T16:05:12.613Z,5.23
2019-05-18T16:07:43.010Z,8.30
2019-05-18T16:10:14.144Z,6.17
2019-05-18T16:12:44.503Z,6.53
2019-05-18T16:15:16.084Z,6.20
2019-05-18T16:17:46.419Z,8.60
2019-05-18T16:20:18.521Z,15.83
2019-05-18T16:22:48.898Z,9.53
2019-05-18T16:25:19.284Z,9.27
2019-05-18T16:27:49.646Z,13.00
2019-05-18T16:30:20.177Z,12.87
2019-05-18T16:32:50.631Z,17.87
2019-05-18T16:35:21.119Z,10.93
2019-05-18T16:37:51.521Z,13.33
2019-05-18T16:40:22.168Z,13.23
2019-05-18T16:42:52.536Z,13.00
2019-05-18T16:45:23.007Z,13.60
2019-05-18T16:47:53.339Z,15.33
2019-05-18T16:50:23.739Z,14.93
2019-05-18T16:52:54.071Z,14.97
2019-05-18T16:55:24.468Z,12.60
2019-05-18T16:57:54.794Z,9.07
2019-05-18T17:00:25.286Z,13.00
2019-05-18T17:02:55.742Z,14.80
2019-05-18T17:05:26.257Z,9.70
2019-05-18T17:07:56.840Z,9.53
2019-05-18T17:10:27.341Z,9.47
2019-05-18T17:12:57.780Z,9.30
2019-05-18T17:15:28.213Z,9.40
2019-05-18T17:17:58.726Z,11.63
2019-05-18T17:20:29.174Z,13.47
2019-05-18T17:22:59.590Z,10.23
2019-05-18T17:25:30.119Z,10.40
2019-05-18T17:28:00.618Z,11.43
2019-05-18T17:30:30.990Z,9.90
2019-05-18T17:33:01.336Z,11.57
2019-05-18T17:35:31.781Z,10.37
2019-05-18T17:38:02.104Z,10.67
2019-05-18T17:40:32.484Z,10.70
2019-05-18T17:43:02.800Z,8.50
2019-05-18T17:45:33.285Z,8.37
2019-05-18T17:48:03.817Z,10.50
2019-05-18T17:50:34.238Z,11.50
2019-05-18T17:53:04.787Z,9.00
2019-05-18T17:55:35.151Z,10.27
2019-05-18T17:58:05.547Z,11.50
2019-05-18T18:00:35.982Z,9.23
2019-05-18T18:03:06.572Z,7.77
2019-05-18T18:05:37.169Z,8.03
2019-05-18T18:08:07.534Z,8.10
2019-05-18T18:10:37.931Z,9.10
2019-05-18T18:13:09.641Z,8.93
2019-05-18T18:15:40.088Z,9.97
2019-05-18T18:18:10.440Z,9.17
2019-05-18T18:20:40.817Z,10.40
2019-05-18T18:23:11.306Z,9.77
2019-05-18T18:25:41.692Z,9.30
2019-05-18T18:28:12.083Z,9.57
2019-05-18T18:30:42.484Z,8.20
2019-05-18T18:33:13.010Z,7.90
2019-05-18T18:35:43.537Z,15.25
2019-05-18T18:38:13.955Z,10.03
2019-05-18T18:40:44.735Z,9.10
2019-05-18T18:43:15.178Z,9.77
2019-05-18T18:45:45.571Z,9.27
2019-05-18T18:48:16.011Z,14.83
2019-05-18T18:50:46.676Z,9.97
2019-05-18T18:53:18.004Z,10.83
2019-05-18T18:55:48.337Z,10.07
2019-05-18T18:58:19.028Z,10.70
2019-05-18T19:00:49.512Z,14.17
2019-05-18T19:03:19.932Z,51.93
2019-05-18T19:05:50.769Z,44.73
2019-05-18T19:08:21.789Z,26.87
2019-05-18T19:10:53.092Z,20.87
2019-05-18T19:13:24.341Z,13.10
2019-05-18T19:15:55.536Z,11.53
2019-05-18T19:18:26.995Z,12.63
2019-05-18T19:20:57.774Z,11.03
2019-05-18T19:23:28.226Z,9.67
2019-05-18T19:25:58.528Z,12.10
2019-05-18T19:28:28.997Z,10.83
2019-05-18T19:30:59.394Z,10.60
2019-05-18T19:33:29.811Z,9.80
2019-05-18T19:36:00.139Z,10.43
2019-05-18T19:38:30.672Z,11.07
2019-05-18T19:41:01.024Z,12.43
2019-05-18T19:43:31.675Z,11.33
2019-05-18T19:46:03.014Z,9.77
2019-05-18T19:48:33.381Z,8.90
2019-05-18T19:51:03.715Z,11.10
2019-05-18T19:53:34.163Z,13.07
2019-05-18T19:56:04.535Z,14.93
2019-05-18T19:58:35.000Z,11.70
2019-05-18T20:01:05.368Z,12.57
2019-05-18T20:03:36.692Z,9.67
2019-05-18T20:06:07.067Z,10.20
2019-05-18T20:08:37.469Z,10.90
2019-05-18T20:11:07.853Z,11.37
2019-05-18T20:13:38.382Z,16.93
2019-05-18T20:16:08.797Z,14.83
2019-05-18T20:18:39.324Z,15.53
2019-05-18T20:21:10.059Z,14.40
2019-05-18T20:23:40.621Z,11.00
2019-05-18T20:26:11.039Z,13.07
2019-05-18T20:28:56.800Z,11.70
2019-05-18T20:31:27.191Z,13.17
2019-05-18T20:33:57.563Z,12.97
2019-05-18T20:36:28.107Z,13.57
2019-05-18T20:38:58.435Z,14.13
2019-05-18T20:41:28.852Z,13.90
2019-05-18T20:43:59.282Z,12.77
2019-05-18T20:46:29.733Z,15.17
2019-05-18T20:49:00.206Z,15.83
2019-05-18T20:51:30.680Z,18.50
2019-05-18T20:54:01.114Z,22.03
2019-05-18T20:56:31.612Z,16.13
2019-05-18T20:59:01.923Z,16.30
2019-05-18T21:01:32.438Z,15.67
2019-05-18T21:04:02.828Z,16.17
2019-05-18T21:06:33.238Z,17.50
2019-05-18T21:09:04.796Z,19.17
2019-05-18T21:11:36.377Z,22.53
2019-05-18T21:14:06.810Z,24.33
2019-05-18T21:16:37.406Z,24.90
2019-05-18T21:19:07.820Z,23.17
2019-05-18T21:21:38.366Z,22.77
2019-05-18T21:24:08.767Z,22.37
2019-05-18T21:26:40.009Z,24.53
2019-05-18T21:29:10.436Z,25.07
2019-05-18T21:31:42.064Z,25.40
2019-05-18T21:34:12.560Z,27.57
2019-05-18T21:36:43.925Z,30.57
2019-05-18T21:39:14.355Z,31.70
2019-05-18T21:41:44.718Z,32.90
2019-05-18T21:44:15.048Z,31.27
2019-05-18T21:46:45.500Z,34.77
2019-05-18T21:49:15.847Z,31.70
2019-05-18T21:51:46.220Z,31.23
2019-05-18T21:54:16.547Z,31.17
2019-05-18T21:56:47.188Z,30.37
2019-05-18T21:59:17.508Z,32.77
2019-05-18T22:01:48.004Z,35.37
2019-05-18T22:04:18.341Z,32.10
2019-05-18T22:06:48.825Z,31.17
2019-05-18T22:09:19.117Z,31.00
2019-05-18T22:11:49.507Z,30.73
2019-05-18T22:14:19.928Z,35.67
2019-05-18T22:16:50.291Z,35.30
2019-05-18T22:19:20.635Z,38.90
2019-05-18T22:21:51.111Z,36.37
2019-05-18T22:24:21.530Z,40.97
2019-05-18T22:26:51.910Z,39.77
2019-05-18T22:29:24.606Z,46.07
2019-05-18T22:31:57.992Z,48.87
2019-05-18T22:34:31.515Z,46.60
2019-05-18T22:37:05.211Z,51.33
2019-05-18T22:39:37.236Z,48.07
2019-05-18T22:42:07.599Z,54.20
2019-05-18T22:44:37.931Z,52.07
2019-05-18T22:47:08.312Z,58.90
2019-05-18T22:49:38.629Z,58.30
2019-05-18T22:52:09.020Z,57.77
2019-05-18T22:54:41.436Z,60.80
2019-05-18T22:57:12.028Z,65.43
2019-05-18T22:59:42.368Z,70.77
2019-05-18T23:02:12.752Z,64.37
2019-05-18T23:04:43.854Z,70.53
2019-05-18T23:07:14.379Z,64.47
2019-05-18T23:09:44.732Z,67.33
2019-05-18T23:12:15.134Z,68.70
2019-05-18T23:14:45.489Z,65.97
2019-05-18T23:17:15.889Z,66.93
2019-05-18T23:19:46.244Z,67.60
2019-05-18T23:22:16.687Z,65.00
2019-05-18T23:24:47.022Z,75.47
2019-05-18T23:27:17.390Z,63.63
2019-05-18T23:29:47.718Z,64.13
2019-05-18T23:32:18.165Z,59.20
2019-05-18T23:34:48.512Z,59.90
2019-05-18T23:37:18.983Z,58.83
2019-05-18T23:39:49.334Z,62.27
2019-05-18T23:42:19.707Z,68.23
2019-05-18T23:44:51.161Z,73.27
2019-05-18T23:47:21.555Z,72.20
2019-05-18T23:49:51.881Z,63.83
2019-05-18T23:52:22.333Z,65.60
2019-05-18T23:54:52.682Z,67.37
2019-05-18T23:57:23.091Z,74.73
2019-05-18T23:59:53.437Z,72.03
